Aviation Digital Data Service (ADDS)

Output produced by METARs form (1133 UTC 25 June 2019)
found at http://www.aviationweather.gov/metar/data/
 
Forecast for: ZBAA (BEIJING/PEKING , CN)
Text: TAF ZBAA 250930Z 2512/2612 15004MPS 8000 NSC TX33/2607Z TN24/2521Z
Forecast period: 1200 UTC 25 June 2019 to 1200 UTC 26 June 2019
Forecast type: FROM: standard forecast or significant change
Winds: from the SSE (150 degrees) at 9 MPH (8 knots; 4.1 m/s)
Visibility: 5 miles (8 km)
Ceiling: unknown
Clouds: missing
Weather: no significant weather forecast for this period